sensor_id;sensor_type;location;lat;lon;timestamp;pressure;altitude;pressure_sealevel;temperature;humidity
18819;BME280;9537;45.594;9.294;2022-07-06T00:00:04;99626.97;;;30.14;40.80
18819;BME280;9537;45.594;9.294;2022-07-06T00:01:07;99625.13;;;30.09;40.40
18819;BME280;9537;45.594;9.294;2022-07-06T00:02:08;99625.44;;;30.07;40.51
18819;BME280;9537;45.594;9.294;2022-07-06T00:03:10;99626.25;;;30.08;40.33
18819;BME280;9537;45.594;9.294;2022-07-06T00:04:12;99625.44;;;30.07;40.47
18819;BME280;9537;45.594;9.294;2022-07-06T00:05:14;99628.66;;;30.09;40.54
18819;BME280;9537;45.594;9.294;2022-07-06T00:06:15;99635.84;;;30.05;40.32
18819;BME280;9537;45.594;9.294;2022-07-06T00:07:18;99629.28;;;30.06;40.59
18819;BME280;9537;45.594;9.294;2022-07-06T00:08:19;99625.84;;;30.01;40.70
18819;BME280;9537;45.594;9.294;2022-07-06T00:09:21;99632.69;;;29.98;40.79
18819;BME280;9537;45.594;9.294;2022-07-06T00:10:22;99628.38;;;29.97;40.67
18819;BME280;9537;45.594;9.294;2022-07-06T00:11:25;99629.69;;;30.00;40.15
18819;BME280;9537;45.594;9.294;2022-07-06T00:12:27;99634.34;;;29.99;40.40
18819;BME280;9537;45.594;9.294;2022-07-06T00:13:29;99631.09;;;29.97;40.32
18819;BME280;9537;45.594;9.294;2022-07-06T00:14:31;99634.09;;;29.96;40.09
18819;BME280;9537;45.594;9.294;2022-07-06T00:15:33;99631.19;;;29.92;40.30
18819;BME280;9537;45.594;9.294;2022-07-06T00:16:34;99631.50;;;29.91;40.62
18819;BME280;9537;45.594;9.294;2022-07-06T00:17:36;99636.63;;;29.92;40.45
18819;BME280;9537;45.594;9.294;2022-07-06T00:18:37;99641.78;;;29.94;40.30
18819;BME280;9537;45.594;9.294;2022-07-06T00:19:39;99634.94;;;29.96;40.17
18819;BME280;9537;45.594;9.294;2022-07-06T00:20:40;99632.78;;;29.93;40.39
18819;BME280;9537;45.594;9.294;2022-07-06T00:21:42;99638.56;;;29.92;40.44
18819;BME280;9537;45.594;9.294;2022-07-06T00:22:44;99635.13;;;29.86;40.86
18819;BME280;9537;45.594;9.294;2022-07-06T00:23:46;99636.25;;;29.85;40.63
18819;BME280;9537;45.594;9.294;2022-07-06T00:24:48;99630.47;;;29.86;40.69
18819;BME280;9537;45.594;9.294;2022-07-06T00:25:50;99625.53;;;29.89;40.61
18819;BME280;9537;45.594;9.294;2022-07-06T00:26:51;99634.00;;;29.87;40.55
18819;BME280;9537;45.594;9.294;2022-07-06T00:27:55;99626.16;;;29.85;40.69
18819;BME280;9537;45.594;9.294;2022-07-06T00:28:56;99626.44;;;29.84;40.75
18819;BME280;9537;45.594;9.294;2022-07-06T00:29:58;99630.28;;;29.83;40.60
18819;BME280;9537;45.594;9.294;2022-07-06T00:30:59;99629.47;;;29.82;40.32
18819;BME280;9537;45.594;9.294;2022-07-06T00:32:01;99631.69;;;29.80;40.31
18819;BME280;9537;45.594;9.294;2022-07-06T00:33:02;99633.00;;;29.83;40.63
18819;BME280;9537;45.594;9.294;2022-07-06T00:34:05;99629.25;;;29.79;40.58
18819;BME280;9537;45.594;9.294;2022-07-06T00:35:06;99629.06;;;29.75;40.99
18819;BME280;9537;45.594;9.294;2022-07-06T00:36:08;99634.00;;;29.73;41.08
18819;BME280;9537;45.594;9.294;2022-07-06T00:37:09;99633.69;;;29.75;41.01
18819;BME280;9537;45.594;9.294;2022-07-06T00:38:12;99636.41;;;29.75;41.08
18819;BME280;9537;45.594;9.294;2022-07-06T00:39:13;99627.75;;;29.73;40.85
18819;BME280;9537;45.594;9.294;2022-07-06T00:40:15;99633.69;;;29.75;40.94
18819;BME280;9537;45.594;9.294;2022-07-06T00:41:16;99624.41;;;29.76;40.78
18819;BME280;9537;45.594;9.294;2022-07-06T00:42:18;99633.59;;;29.80;41.10
18819;BME280;9537;45.594;9.294;2022-07-06T00:43:20;99629.84;;;29.76;40.57
18819;BME280;9537;45.594;9.294;2022-07-06T00:44:23;99631.28;;;29.73;40.72
18819;BME280;9537;45.594;9.294;2022-07-06T00:45:24;99621.22;;;29.74;41.16
18819;BME280;9537;45.594;9.294;2022-07-06T00:46:28;99622.59;;;29.71;41.20
18819;BME280;9537;45.594;9.294;2022-07-06T00:47:32;99626.94;;;29.72;41.00
18819;BME280;9537;45.594;9.294;2022-07-06T00:48:33;99624.00;;;29.69;41.32
18819;BME280;9537;45.594;9.294;2022-07-06T00:49:35;99629.97;;;29.71;41.25
18819;BME280;9537;45.594;9.294;2022-07-06T00:50:54;99627.34;;;29.66;41.00
18819;BME280;9537;45.594;9.294;2022-07-06T00:51:57;99631.16;;;29.64;40.92
18819;BME280;9537;45.594;9.294;2022-07-06T00:53:00;99632.78;;;29.66;41.20
18819;BME280;9537;45.594;9.294;2022-07-06T00:54:03;99637.63;;;29.69;40.96
18819;BME280;9537;45.594;9.294;2022-07-06T00:55:05;99629.75;;;29.67;41.29
18819;BME280;9537;45.594;9.294;2022-07-06T00:56:07;99643.34;;;29.67;40.95
18819;BME280;9537;45.594;9.294;2022-07-06T00:57:09;99634.38;;;29.67;41.43
18819;BME280;9537;45.594;9.294;2022-07-06T00:58:11;99633.88;;;29.64;41.35
18819;BME280;9537;45.594;9.294;2022-07-06T00:59:14;99638.50;;;29.64;41.26
18819;BME280;9537;45.594;9.294;2022-07-06T01:00:18;99636.97;;;29.58;41.25
18819;BME280;9537;45.594;9.294;2022-07-06T01:01:19;99638.59;;;29.59;41.79
18819;BME280;9537;45.594;9.294;2022-07-06T01:02:22;99641.88;;;29.56;41.64
18819;BME280;9537;45.594;9.294;2022-07-06T01:03:23;99638.69;;;29.54;41.78
18819;BME280;9537;45.594;9.294;2022-07-06T01:04:25;99643.88;;;29.50;41.80
18819;BME280;9537;45.594;9.294;2022-07-06T01:05:28;99644.72;;;29.51;41.21
18819;BME280;9537;45.594;9.294;2022-07-06T01:06:29;99646.91;;;29.49;41.33
18819;BME280;9537;45.594;9.294;2022-07-06T01:07:32;99643.41;;;29.48;41.41
18819;BME280;9537;45.594;9.294;2022-07-06T01:08:34;99643.69;;;29.47;41.65
18819;BME280;9537;45.594;9.294;2022-07-06T01:09:36;99642.88;;;29.46;41.83
18819;BME280;9537;45.594;9.294;2022-07-06T01:10:37;99644.00;;;29.45;41.55
18819;BME280;9537;45.594;9.294;2022-07-06T01:11:39;99638.03;;;29.43;41.52
18819;BME280;9537;45.594;9.294;2022-07-06T01:12:41;99639.66;;;29.44;41.75
18819;BME280;9537;45.594;9.294;2022-07-06T01:13:43;99642.97;;;29.41;41.98
18819;BME280;9537;45.594;9.294;2022-07-06T01:14:47;99637.84;;;29.39;42.25
18819;BME280;9537;45.594;9.294;2022-07-06T01:15:49;99639.84;;;29.34;41.96
18819;BME280;9537;45.594;9.294;2022-07-06T01:16:50;99638.81;;;29.30;42.54
18819;BME280;9537;45.594;9.294;2022-07-06T01:17:53;99638.59;;;29.26;42.19
18819;BME280;9537;45.594;9.294;2022-07-06T01:18:54;99629.31;;;29.27;42.26
18819;BME280;9537;45.594;9.294;2022-07-06T01:19:56;99630.44;;;29.26;42.42
18819;BME280;9537;45.594;9.294;2022-07-06T01:21:12;99634.88;;;29.22;42.71
18819;BME280;9537;45.594;9.294;2022-07-06T01:22:14;99623.47;;;29.20;42.66
18819;BME280;9537;45.594;9.294;2022-07-06T01:23:15;99627.19;;;29.24;42.65
18819;BME280;9537;45.594;9.294;2022-07-06T01:24:17;99628.81;;;29.25;42.35
18819;BME280;9537;45.594;9.294;2022-07-06T01:25:18;99626.91;;;29.26;42.11
18819;BME280;9537;45.594;9.294;2022-07-06T01:26:21;99626.91;;;29.26;42.38
18819;BME280;9537;45.594;9.294;2022-07-06T01:27:22;99620.16;;;29.23;42.45
18819;BME280;9537;45.594;9.294;2022-07-06T01:28:24;99627.72;;;29.26;42.35
18819;BME280;9537;45.594;9.294;2022-07-06T01:29:25;99616.03;;;29.26;42.31
18819;BME280;9537;45.594;9.294;2022-07-06T01:30:27;99625.78;;;29.27;42.01
18819;BME280;9537;45.594;9.294;2022-07-06T01:31:28;99616.63;;;29.23;42.52
18819;BME280;9537;45.594;9.294;2022-07-06T01:32:30;99623.16;;;29.22;42.49
18819;BME280;9537;45.594;9.294;2022-07-06T01:33:31;99620.44;;;29.22;42.40
18819;BME280;9537;45.594;9.294;2022-07-06T01:34:34;99629.72;;;29.21;42.37
18819;BME280;9537;45.594;9.294;2022-07-06T01:35:35;99621.88;;;29.19;42.51
18819;BME280;9537;45.594;9.294;2022-07-06T01:36:41;99626.19;;;29.20;42.50
18819;BME280;9537;45.594;9.294;2022-07-06T01:37:42;99625.38;;;29.19;42.30
18819;BME280;9537;45.594;9.294;2022-07-06T01:38:49;99622.94;;;29.18;42.18
18819;BME280;9537;45.594;9.294;2022-07-06T01:39:50;99625.66;;;29.18;42.07
18819;BME280;9537;45.594;9.294;2022-07-06T01:40:52;99627.31;;;29.19;42.04
18819;BME280;9537;45.594;9.294;2022-07-06T01:41:53;99624.06;;;29.17;41.99
18819;BME280;9537;45.594;9.294;2022-07-06T01:42:55;99622.47;;;29.16;42.46
18819;BME280;9537;45.594;9.294;2022-07-06T01:43:56;99623.84;;;29.13;42.41
18819;BME280;9537;45.594;9.294;2022-07-06T01:44:58;99621.13;;;29.13;42.86
18819;BME280;9537;45.594;9.294;2022-07-06T01:45:59;99628.19;;;29.14;42.76
18819;BME280;9537;45.594;9.294;2022-07-06T01:47:01;99625.75;;;29.13;42.71
18819;BME280;9537;45.594;9.294;2022-07-06T01:48:05;99622.81;;;29.09;42.92
18819;BME280;9537;45.594;9.294;2022-07-06T01:49:07;99628.25;;;29.09;42.74
18819;BME280;9537;45.594;9.294;2022-07-06T01:50:08;99624.72;;;29.09;42.88
18819;BME280;9537;45.594;9.294;2022-07-06T01:51:11;99624.44;;;29.10;42.64
18819;BME280;9537;45.594;9.294;2022-07-06T01:52:13;99630.44;;;29.07;42.76
18819;BME280;9537;45.594;9.294;2022-07-06T01:53:15;99631.28;;;29.08;43.02
18819;BME280;9537;45.594;9.294;2022-07-06T01:54:16;99631.06;;;29.04;43.01
18819;BME280;9537;45.594;9.294;2022-07-06T01:55:18;99635.91;;;29.07;42.85
18819;BME280;9537;45.594;9.294;2022-07-06T01:56:20;99631.56;;;29.06;42.88
18819;BME280;9537;45.594;9.294;2022-07-06T01:57:22;99636.25;;;29.01;42.97
18819;BME280;9537;45.594;9.294;2022-07-06T01:58:23;99636.56;;;28.99;43.06
18819;BME280;9537;45.594;9.294;2022-07-06T01:59:25;99639.28;;;28.99;43.20
18819;BME280;9537;45.594;9.294;2022-07-06T02:00:26;99641.75;;;28.95;43.27
18819;BME280;9537;45.594;9.294;2022-07-06T02:01:28;99643.97;;;28.93;43.13
18819;BME280;9537;45.594;9.294;2022-07-06T02:02:29;99639.41;;;28.89;43.09
18819;BME280;9537;45.594;9.294;2022-07-06T02:03:31;99647.44;;;28.80;43.52
18819;BME280;9537;45.594;9.294;2022-07-06T02:04:32;99643.09;;;28.79;43.67
18819;BME280;9537;45.594;9.294;2022-07-06T02:05:34;99647.44;;;28.80;43.73
18819;BME280;9537;45.594;9.294;2022-07-06T02:06:35;99650.75;;;28.77;43.82
18819;BME280;9537;45.594;9.294;2022-07-06T02:07:38;99647.88;;;28.68;44.48
18819;BME280;9537;45.594;9.294;2022-07-06T02:08:40;99647.34;;;28.66;44.34
18819;BME280;9537;45.594;9.294;2022-07-06T02:09:42;99650.59;;;28.68;44.41
18819;BME280;9537;45.594;9.294;2022-07-06T02:10:43;99650.38;;;28.65;44.89
18819;BME280;9537;45.594;9.294;2022-07-06T02:11:45;99648.59;;;28.55;45.40
18819;BME280;9537;45.594;9.294;2022-07-06T02:12:46;99652.19;;;28.50;45.50
18819;BME280;9537;45.594;9.294;2022-07-06T02:13:48;99649.81;;;28.44;45.54
18819;BME280;9537;45.594;9.294;2022-07-06T02:14:49;99656.09;;;28.39;45.64
18819;BME280;9537;45.594;9.294;2022-07-06T02:15:52;99652.66;;;28.34;45.80
18819;BME280;9537;45.594;9.294;2022-07-06T02:16:53;99661.97;;;28.27;45.84
18819;BME280;9537;45.594;9.294;2022-07-06T02:17:54;99656.28;;;28.24;46.27
18819;BME280;9537;45.594;9.294;2022-07-06T02:18:56;99658.50;;;28.22;46.14
18819;BME280;9537;45.594;9.294;2022-07-06T02:19:57;99658.72;;;28.25;46.18
18819;BME280;9537;45.594;9.294;2022-07-06T02:20:59;99662.00;;;28.22;45.77
18819;BME280;9537;45.594;9.294;2022-07-06T02:22:00;99667.22;;;28.19;45.84
18819;BME280;9537;45.594;9.294;2022-07-06T02:23:04;99665.88;;;28.16;45.91
18819;BME280;9537;45.594;9.294;2022-07-06T02:24:05;99662.41;;;28.11;46.08
18819;BME280;9537;45.594;9.294;2022-07-06T02:25:07;99659.97;;;28.09;46.14
18819;BME280;9537;45.594;9.294;2022-07-06T02:26:09;99656.25;;;28.05;46.72
18819;BME280;9537;45.594;9.294;2022-07-06T02:27:11;99659.28;;;27.98;47.02
18819;BME280;9537;45.594;9.294;2022-07-06T02:28:12;99662.56;;;27.95;47.44
18819;BME280;9537;45.594;9.294;2022-07-06T02:29:13;99659.06;;;27.95;47.21
18819;BME280;9537;45.594;9.294;2022-07-06T02:30:14;99656.28;;;28.00;47.12
18819;BME280;9537;45.594;9.294;2022-07-06T02:31:16;99656.28;;;28.00;47.09
18819;BME280;9537;45.594;9.294;2022-07-06T02:32:17;99657.44;;;27.94;47.67
18819;BME280;9537;45.594;9.294;2022-07-06T02:33:19;99653.41;;;27.91;47.70
18819;BME280;9537;45.594;9.294;2022-07-06T02:34:20;99652.34;;;27.87;47.92
18819;BME280;9537;45.594;9.294;2022-07-06T02:35:23;99655.34;;;27.85;48.21
18819;BME280;9537;45.594;9.294;2022-07-06T02:36:24;99659.75;;;27.81;47.96
18819;BME280;9537;45.594;9.294;2022-07-06T02:37:26;99657.53;;;27.83;47.66
18819;BME280;9537;45.594;9.294;2022-07-06T02:38:28;99663.53;;;27.80;47.98
18819;BME280;9537;45.594;9.294;2022-07-06T02:39:30;99656.75;;;27.78;48.17
18819;BME280;9537;45.594;9.294;2022-07-06T02:40:31;99653.00;;;27.79;48.05
18819;BME280;9537;45.594;9.294;2022-07-06T02:41:33;99660.03;;;27.80;48.20
18819;BME280;9537;45.594;9.294;2022-07-06T02:42:34;99660.81;;;27.80;48.30
18819;BME280;9537;45.594;9.294;2022-07-06T02:43:37;99663.84;;;27.79;48.46
18819;BME280;9537;45.594;9.294;2022-07-06T02:44:38;99663.56;;;27.75;48.32
18819;BME280;9537;45.594;9.294;2022-07-06T02:45:41;99664.13;;;27.72;48.34
18819;BME280;9537;45.594;9.294;2022-07-06T02:46:42;99666.25;;;27.75;48.42
18819;BME280;9537;45.594;9.294;2022-07-06T02:47:44;99665.19;;;27.76;48.55
18819;BME280;9537;45.594;9.294;2022-07-06T02:48:45;99667.09;;;27.76;48.38
18819;BME280;9537;45.594;9.294;2022-07-06T02:49:46;99677.66;;;27.77;48.58
18819;BME280;9537;45.594;9.294;2022-07-06T02:50:48;99671.47;;;27.72;48.58
18819;BME280;9537;45.594;9.294;2022-07-06T02:51:50;99674.19;;;27.72;48.68
18819;BME280;9537;45.594;9.294;2022-07-06T02:52:51;99675.28;;;27.71;48.97
18819;BME280;9537;45.594;9.294;2022-07-06T02:53:54;99673.66;;;27.70;49.29
18819;BME280;9537;45.594;9.294;2022-07-06T02:54:55;99675.28;;;27.71;49.13
18819;BME280;9537;45.594;9.294;2022-07-06T02:55:57;99684.81;;;27.68;49.29
18819;BME280;9537;45.594;9.294;2022-07-06T02:56:58;99680.75;;;27.66;49.23
18819;BME280;9537;45.594;9.294;2022-07-06T02:58:00;99690.25;;;27.63;49.62
18819;BME280;9537;45.594;9.294;2022-07-06T02:59:01;99676.44;;;27.65;49.49
18819;BME280;9537;45.594;9.294;2022-07-06T03:00:04;99685.16;;;27.61;49.46
18819;BME280;9537;45.594;9.294;2022-07-06T03:01:06;99687.59;;;27.58;49.68
18819;BME280;9537;45.594;9.294;2022-07-06T03:02:08;99692.78;;;27.54;49.72
18819;BME280;9537;45.594;9.294;2022-07-06T03:03:09;99695.25;;;27.51;49.77
18819;BME280;9537;45.594;9.294;2022-07-06T03:04:11;99697.69;;;27.52;49.56
18819;BME280;9537;45.594;9.294;2022-07-06T03:05:12;99699.59;;;27.52;49.54
18819;BME280;9537;45.594;9.294;2022-07-06T03:06:14;99705.56;;;27.49;48.75
18819;BME280;9537;45.594;9.294;2022-07-06T03:07:14;99710.47;;;27.47;49.05
18819;BME280;9537;45.594;9.294;2022-07-06T03:08:16;99719.97;;;27.44;49.32
18819;BME280;9537;45.594;9.294;2022-07-06T03:09:19;99721.91;;;27.38;49.61
18819;BME280;9537;45.594;9.294;2022-07-06T03:10:21;99715.97;;;27.42;49.38
18819;BME280;9537;45.594;9.294;2022-07-06T03:11:22;99719.47;;;27.42;49.14
18819;BME280;9537;45.594;9.294;2022-07-06T03:12:24;99720.53;;;27.41;49.13
18819;BME280;9537;45.594;9.294;2022-07-06T03:13:25;99718.94;;;27.40;49.19
18819;BME280;9537;45.594;9.294;2022-07-06T03:14:27;99722.44;;;27.40;48.73
18819;BME280;9537;45.594;9.294;2022-07-06T03:15:28;99725.66;;;27.48;48.68
18819;BME280;9537;45.594;9.294;2022-07-06T03:16:30;99726.72;;;27.52;48.50
18819;BME280;9537;45.594;9.294;2022-07-06T03:17:31;99727.25;;;27.54;48.07
18819;BME280;9537;45.594;9.294;2022-07-06T03:18:33;99726.69;;;27.57;47.56
18819;BME280;9537;45.594;9.294;2022-07-06T03:19:34;99723.97;;;27.57;47.36
18819;BME280;9537;45.594;9.294;2022-07-06T03:20:36;99725.56;;;27.58;46.67
18819;BME280;9537;45.594;9.294;2022-07-06T03:21:37;99728.59;;;27.56;46.28
18819;BME280;9537;45.594;9.294;2022-07-06T03:22:39;99725.56;;;27.58;45.97
18819;BME280;9537;45.594;9.294;2022-07-06T03:23:40;99733.69;;;27.63;45.58
18819;BME280;9537;45.594;9.294;2022-07-06T03:24:43;99729.31;;;27.67;44.85
18819;BME280;9537;45.594;9.294;2022-07-06T03:25:44;99730.16;;;27.62;44.67
18819;BME280;9537;45.594;9.294;2022-07-06T03:26:46;99727.69;;;27.66;44.40
18819;BME280;9537;45.594;9.294;2022-07-06T03:27:47;99729.31;;;27.67;44.29
18819;BME280;9537;45.594;9.294;2022-07-06T03:28:49;99724.41;;;27.69;44.22
18819;BME280;9537;45.594;9.294;2022-07-06T03:29:50;99730.13;;;27.68;44.08
18819;BME280;9537;45.594;9.294;2022-07-06T03:30:52;99734.22;;;27.65;44.16
18819;BME280;9537;45.594;9.294;2022-07-06T03:31:53;99733.63;;;27.68;44.16
18819;BME280;9537;45.594;9.294;2022-07-06T03:32:55;99734.69;;;27.72;44.23
18819;BME280;9537;45.594;9.294;2022-07-06T03:33:56;99735.47;;;27.73;44.21
18819;BME280;9537;45.594;9.294;2022-07-06T03:34:58;99733.59;;;27.73;44.19
18819;BME280;9537;45.594;9.294;2022-07-06T03:35:59;99745.03;;;27.70;44.21
18819;BME280;9537;45.594;9.294;2022-07-06T03:37:01;99739.63;;;27.65;44.69
18819;BME280;9537;45.594;9.294;2022-07-06T03:38:04;99739.63;;;27.65;44.64
18819;BME280;9537;45.594;9.294;2022-07-06T03:39:05;99732.31;;;27.66;44.78
18819;BME280;9537;45.594;9.294;2022-07-06T03:40:10;99736.34;;;27.68;44.79
18819;BME280;9537;45.594;9.294;2022-07-06T03:41:11;99738.84;;;27.65;44.67
18819;BME280;9537;45.594;9.294;2022-07-06T03:42:13;99735.00;;;27.66;45.07
18819;BME280;9537;45.594;9.294;2022-07-06T03:43:15;99742.38;;;27.60;45.21
18819;BME280;9537;45.594;9.294;2022-07-06T03:44:16;99746.69;;;27.61;45.17
18819;BME280;9537;45.594;9.294;2022-07-06T03:45:18;99743.19;;;27.60;45.43
18819;BME280;9537;45.594;9.294;2022-07-06T03:46:19;99750.75;;;27.63;45.30
18819;BME280;9537;45.594;9.294;2022-07-06T03:47:21;99742.34;;;27.65;45.22
18819;BME280;9537;45.594;9.294;2022-07-06T03:48:21;99745.63;;;27.62;45.35
18819;BME280;9537;45.594;9.294;2022-07-06T03:49:23;99742.91;;;27.62;45.52
18819;BME280;9537;45.594;9.294;2022-07-06T03:50:27;99746.47;;;27.57;45.74
18819;BME280;9537;45.594;9.294;2022-07-06T03:51:29;99751.31;;;27.60;45.77
18819;BME280;9537;45.594;9.294;2022-07-06T03:52:30;99751.31;;;27.60;45.95
18819;BME280;9537;45.594;9.294;2022-07-06T03:53:32;99757.00;;;27.64;45.99
18819;BME280;9537;45.594;9.294;2022-07-06T03:54:33;99754.84;;;27.61;45.84
18819;BME280;9537;45.594;9.294;2022-07-06T03:55:37;99751.09;;;27.57;46.21
18819;BME280;9537;45.594;9.294;2022-07-06T03:56:38;99753.81;;;27.57;46.13
18819;BME280;9537;45.594;9.294;2022-07-06T03:57:40;99755.41;;;27.58;46.04
18819;BME280;9537;45.594;9.294;2022-07-06T03:58:41;99750.78;;;27.58;45.86
18819;BME280;9537;45.594;9.294;2022-07-06T03:59:43;99757.06;;;27.59;46.21
18819;BME280;9537;45.594;9.294;2022-07-06T04:00:44;99766.78;;;27.65;46.07
18819;BME280;9537;45.594;9.294;2022-07-06T04:01:46;99757.06;;;27.59;46.55
18819;BME280;9537;45.594;9.294;2022-07-06T04:02:47;99758.13;;;27.58;46.46
18819;BME280;9537;45.594;9.294;2022-07-06T04:03:49;99754.91;;;27.56;46.44
18819;BME280;9537;45.594;9.294;2022-07-06T04:04:50;99755.97;;;27.55;46.42
18819;BME280;9537;45.594;9.294;2022-07-06T04:05:52;99756.53;;;27.57;46.72
18819;BME280;9537;45.594;9.294;2022-07-06T04:06:53;99763.28;;;27.59;46.70
18819;BME280;9537;45.594;9.294;2022-07-06T04:07:55;99760.56;;;27.59;46.62
18819;BME280;9537;45.594;9.294;2022-07-06T04:08:56;99762.19;;;27.60;46.66
18819;BME280;9537;45.594;9.294;2022-07-06T04:09:58;99767.63;;;27.55;46.87
18819;BME280;9537;45.594;9.294;2022-07-06T04:11:00;99762.22;;;27.55;46.84
18819;BME280;9537;45.594;9.294;2022-07-06T04:12:03;99774.16;;;27.54;47.02
18819;BME280;9537;45.594;9.294;2022-07-06T04:13:04;99772.50;;;27.58;46.94
18819;BME280;9537;45.594;9.294;2022-07-06T04:14:05;99774.41;;;27.58;46.93
18819;BME280;9537;45.594;9.294;2022-07-06T04:15:07;99769.28;;;27.56;46.75
18819;BME280;9537;45.594;9.294;2022-07-06T04:16:09;99775.22;;;27.58;46.69
18819;BME280;9537;45.594;9.294;2022-07-06T04:17:10;99776.59;;;27.56;46.71
18819;BME280;9537;45.594;9.294;2022-07-06T04:18:29;99772.56;;;27.53;46.69
18819;BME280;9537;45.594;9.294;2022-07-06T04:19:31;99775.00;;;27.50;46.76
18819;BME280;9537;45.594;9.294;2022-07-06T04:20:33;99780.72;;;27.48;46.67
18819;BME280;9537;45.594;9.294;2022-07-06T04:21:35;99765.81;;;27.46;46.82
18819;BME280;9537;45.594;9.294;2022-07-06T04:22:37;99769.06;;;27.48;46.71
18819;BME280;9537;45.594;9.294;2022-07-06T04:23:39;99770.69;;;27.49;46.93
18819;BME280;9537;45.594;9.294;2022-07-06T04:24:41;99779.34;;;27.51;46.88
18819;BME280;9537;45.594;9.294;2022-07-06T04:25:42;99767.41;;;27.52;46.75
18819;BME280;9537;45.594;9.294;2022-07-06T04:26:45;99774.47;;;27.53;46.69
18819;BME280;9537;45.594;9.294;2022-07-06T04:27:46;99783.13;;;27.50;46.89
18819;BME280;9537;45.594;9.294;2022-07-06T04:28:48;99774.72;;;27.51;47.06
18819;BME280;9537;45.594;9.294;2022-07-06T04:29:49;99780.19;;;27.46;46.87
18819;BME280;9537;45.594;9.294;2022-07-06T04:30:51;99784.00;;;27.45;46.90
18819;BME280;9537;45.594;9.294;2022-07-06T04:31:52;99785.91;;;27.45;46.83
18819;BME280;9537;45.594;9.294;2022-07-06T04:32:54;99786.94;;;27.49;46.94
18819;BME280;9537;45.594;9.294;2022-07-06T04:33:56;99781.81;;;27.47;46.54
18819;BME280;9537;45.594;9.294;2022-07-06T04:34:57;99787.50;;;27.51;46.32
18819;BME280;9537;45.594;9.294;2022-07-06T04:35:58;99792.91;;;27.51;46.35
18819;BME280;9537;45.594;9.294;2022-07-06T04:37:01;99787.50;;;27.46;46.14
18819;BME280;9537;45.594;9.294;2022-07-06T04:38:01;99793.50;;;27.43;46.23
18819;BME280;9537;45.594;9.294;2022-07-06T04:39:04;99788.63;;;27.45;46.13
18819;BME280;9537;45.594;9.294;2022-07-06T04:40:05;99789.19;;;27.42;46.09
18819;BME280;9537;45.594;9.294;2022-07-06T04:41:08;99785.38;;;27.43;46.03
18819;BME280;9537;45.594;9.294;2022-07-06T04:42:10;99789.47;;;27.35;46.38
18819;BME280;9537;45.594;9.294;2022-07-06T04:43:12;99796.81;;;27.34;46.32
18819;BME280;9537;45.594;9.294;2022-07-06T04:44:14;99790.81;;;27.37;46.06
18819;BME280;9537;45.594;9.294;2022-07-06T04:45:15;99798.94;;;27.37;46.20
18819;BME280;9537;45.594;9.294;2022-07-06T04:46:17;99794.06;;;27.39;46.03
18819;BME280;9537;45.594;9.294;2022-07-06T04:47:20;99795.13;;;27.38;46.27
18819;BME280;9537;45.594;9.294;2022-07-06T04:48:22;99799.19;;;27.41;46.27
18819;BME280;9537;45.594;9.294;2022-07-06T04:49:22;99807.59;;;27.45;45.93
18819;BME280;9537;45.594;9.294;2022-07-06T04:50:24;99801.09;;;27.40;46.04
18819;BME280;9537;45.594;9.294;2022-07-06T04:51:26;99804.13;;;27.39;45.94
18819;BME280;9537;45.594;9.294;2022-07-06T04:52:28;99803.00;;;27.40;46.11
18819;BME280;9537;45.594;9.294;2022-07-06T04:53:30;99809.25;;;27.40;46.09
18819;BME280;9537;45.594;9.294;2022-07-06T04:54:32;99812.25;;;27.39;46.34
18819;BME280;9537;45.594;9.294;2022-07-06T04:55:33;99807.09;;;27.37;46.27
18819;BME280;9537;45.594;9.294;2022-07-06T04:56:35;99807.34;;;27.41;46.21
18819;BME280;9537;45.594;9.294;2022-07-06T04:57:37;99810.88;;;27.42;46.04
18819;BME280;9537;45.594;9.294;2022-07-06T04:58:39;99811.38;;;27.44;46.28
18819;BME280;9537;45.594;9.294;2022-07-06T04:59:40;99819.03;;;27.42;46.22
18819;BME280;9537;45.594;9.294;2022-07-06T05:00:42;99821.19;;;27.39;46.32
18819;BME280;9537;45.594;9.294;2022-07-06T05:01:45;99821.75;;;27.36;46.44
18819;BME280;9537;45.594;9.294;2022-07-06T05:02:47;99823.94;;;27.34;46.40
18819;BME280;9537;45.594;9.294;2022-07-06T05:03:48;99824.47;;;27.36;46.39
18819;BME280;9537;45.594;9.294;2022-07-06T05:04:50;99822.81;;;27.35;46.42
18819;BME280;9537;45.594;9.294;2022-07-06T05:05:51;99830.16;;;27.35;46.63
18819;BME280;9537;45.594;9.294;2022-07-06T05:06:53;99827.19;;;27.36;46.34
18819;BME280;9537;45.594;9.294;2022-07-06T05:07:54;99831.78;;;27.36;46.46
18819;BME280;9537;45.594;9.294;2022-07-06T05:08:56;99831.25;;;27.34;46.46
18819;BME280;9537;45.594;9.294;2022-07-06T05:10:00;99831.53;;;27.32;46.44
18819;BME280;9537;45.594;9.294;2022-07-06T05:11:01;99832.09;;;27.29;46.30
18819;BME280;9537;45.594;9.294;2022-07-06T05:12:03;99832.63;;;27.31;46.49
18819;BME280;9537;45.594;9.294;2022-07-06T05:13:06;99836.44;;;27.30;46.49
18819;BME280;9537;45.594;9.294;2022-07-06T05:14:07;99832.88;;;27.30;46.77
18819;BME280;9537;45.594;9.294;2022-07-06T05:15:10;99828.53;;;27.34;46.53
18819;BME280;9537;45.594;9.294;2022-07-06T05:16:11;99834.78;;;27.29;46.67
18819;BME280;9537;45.594;9.294;2022-07-06T05:17:13;99830.47;;;27.28;46.74
18819;BME280;9537;45.594;9.294;2022-07-06T05:18:14;99833.19;;;27.28;46.71
18819;BME280;9537;45.594;9.294;2022-07-06T05:19:16;99829.66;;;27.28;46.96
18819;BME280;9537;45.594;9.294;2022-07-06T05:20:18;99833.72;;;27.30;46.81
18819;BME280;9537;45.594;9.294;2022-07-06T05:21:20;99829.91;;;27.31;46.56
18819;BME280;9537;45.594;9.294;2022-07-06T05:22:21;99829.88;;;27.36;46.73
18819;BME280;9537;45.594;9.294;2022-07-06T05:23:23;99831.78;;;27.36;46.55
18819;BME280;9537;45.594;9.294;2022-07-06T05:24:24;99825.81;;;27.39;46.54
18819;BME280;9537;45.594;9.294;2022-07-06T05:25:26;99826.88;;;27.38;46.47
18819;BME280;9537;45.594;9.294;2022-07-06T05:26:27;99828.53;;;27.34;46.57
18819;BME280;9537;45.594;9.294;2022-07-06T05:27:29;99833.94;;;27.39;46.79
18819;BME280;9537;45.594;9.294;2022-07-06T05:28:31;99830.41;;;27.38;46.83
18819;BME280;9537;45.594;9.294;2022-07-06T05:29:33;99839.06;;;27.40;46.84
18819;BME280;9537;45.594;9.294;2022-07-06T05:30:34;99830.94;;;27.40;46.66
18819;BME280;9537;45.594;9.294;2022-07-06T05:31:36;99832.84;;;27.40;46.86